Startpagina
METAR-TAF:

METAR-TAF

Vliegvelden :

Kasane Airport

Kasane, Botswana

breedte: 17-49S, lengte: 025-09E, hoogte: 968 m

Actueel weer

Dit bericht is 12 uur en het 33 minuten geleden gemaakt, om 15:00 UTC
Wind 9 kt uit het oostzuidoosten, variërend tussen het oostnoordoosten en het zuidoosten
Temperatuur 23°C
Vochtigheid 31%
Druk 1024 hPa
Zicht 10 km of meer
geen wolken onder 1500 m en geen cumulonimbus

METAR: FBKE 121500Z 11009KT 070V140 CAVOK 23/05 Q1024

Tijdstip: 05:33 (03:33 UTC)

Verwachting

Dit bericht is 15 uur en het 33 minuten geleden gemaakt, om 12:00 UTC
Verwachting geldig van 12 om 15 UTC tot 12 om 24 UTC
Wind 7 kt uit het oostzuidoosten
Zicht 10 km of meer
geen wolken onder 1500 m en geen cumulonimbus

TAF: FBKE 121200Z 1215/1224 11007KT CAVOK

Waarnemingen en weersverwachtingen van meer dan 4000 vliegvelden (METAR en TAF).

De beschikbare stations zijn de gele en rode punten op de kaart.

Ga met uw muis naar het station om de naam te zien.

Klik dan om waarnemingen en weersverwachtingen te zien.

kaart wijzigen: klik op de groene knoppen met een zwart kruis om in te zoomen, op de groene knop met een streepje om uit te zoomen of op de groene pijlen voor aangrenzende kaarten.


METAR-TAF: